createdAt,value
2023-02-03T00:00:46.748Z,8.05
2023-02-03T00:01:46.784Z,8.05
2023-02-03T00:02:46.801Z,8.06
2023-02-03T00:03:46.709Z,8.06
2023-02-03T00:04:46.721Z,8.08
2023-02-03T00:05:46.747Z,8.08
2023-02-03T00:06:46.724Z,8.08
2023-02-03T00:07:46.714Z,8.09
2023-02-03T00:08:46.719Z,8.08
2023-02-03T00:09:46.642Z,8.06
2023-02-03T00:10:46.641Z,8.06
2023-02-03T00:11:46.664Z,8.08
2023-02-03T00:12:46.623Z,8.06
2023-02-03T00:13:46.597Z,8.06
2023-02-03T00:14:46.650Z,8.05
2023-02-03T00:15:46.588Z,8.06
2023-02-03T00:16:46.629Z,8.06
2023-02-03T00:17:46.563Z,8.06
2023-02-03T00:18:46.556Z,8.06
2023-02-03T00:19:46.532Z,8.03
2023-02-03T00:20:46.574Z,8.05
2023-02-03T00:21:46.536Z,8.05
2023-02-03T00:22:46.698Z,8.03
2023-02-03T00:23:46.505Z,8.06
2023-02-03T00:24:46.543Z,8.05
2023-02-03T00:25:46.486Z,8.05
2023-02-03T00:26:46.486Z,8.01
2023-02-03T00:27:46.519Z,8.01
2023-02-03T00:28:46.459Z,8.03
2023-02-03T00:29:46.435Z,8.01
2023-02-03T00:30:46.451Z,8.03
2023-02-03T00:31:46.504Z,8.01
2023-02-03T00:32:46.443Z,8.03
2023-02-03T00:33:46.404Z,8.03
2023-02-03T00:34:46.409Z,8.03
2023-02-03T00:35:46.394Z,8.01
2023-02-03T00:36:46.373Z,8.03
2023-02-03T00:37:46.391Z,8.01
2023-02-03T00:38:46.361Z,8.03
2023-02-03T00:39:46.321Z,8.03
2023-02-03T00:40:46.329Z,8.05
2023-02-03T00:41:46.312Z,8.05
2023-02-03T00:42:46.307Z,8.05
2023-02-03T00:43:46.321Z,8.05
2023-02-03T00:44:46.375Z,8.05
2023-02-03T00:45:46.361Z,8.05
2023-02-03T00:46:46.280Z,8.06
2023-02-03T00:47:46.256Z,8.05
2023-02-03T00:48:46.268Z,8.06
2023-02-03T00:49:46.262Z,8.06
2023-02-03T00:50:46.225Z,8.06
2023-02-03T00:51:46.227Z,8.06
2023-02-03T00:52:46.194Z,8.08
2023-02-03T00:53:46.207Z,8.06
2023-02-03T00:54:46.191Z,8.09
2023-02-03T00:55:46.184Z,8.09
2023-02-03T00:56:46.165Z,8.09
2023-02-03T00:57:46.138Z,8.08
2023-02-03T00:58:46.157Z,8.06
2023-02-03T00:59:46.139Z,8.06
2023-02-03T01:00:46.197Z,8.03
2023-02-03T01:01:46.097Z,8.03
2023-02-03T01:02:46.183Z,8.01
2023-02-03T01:03:46.066Z,8.03
2023-02-03T01:04:46.101Z,8.01
2023-02-03T01:05:46.064Z,8.01
2023-02-03T01:06:46.063Z,8.03
2023-02-03T01:07:46.031Z,8.01
2023-02-03T01:08:46.055Z,8.01
2023-02-03T01:09:46.011Z,7.97
2023-02-03T01:10:46.016Z,7.97
2023-02-03T01:11:46.023Z,7.98
2023-02-03T01:12:46.000Z,7.97
2023-02-03T01:13:46.028Z,7.97
2023-02-03T01:14:45.968Z,7.97
2023-02-03T01:15:45.971Z,7.95
2023-02-03T01:16:46.035Z,7.97
2023-02-03T01:17:45.934Z,7.95
2023-02-03T01:18:45.942Z,7.95
2023-02-03T01:19:45.905Z,7.95
2023-02-03T01:20:45.908Z,7.95
2023-02-03T01:21:45.873Z,7.95
2023-02-03T01:22:45.928Z,7.97
2023-02-03T01:23:45.872Z,7.95
2023-02-03T01:24:45.917Z,7.97
2023-02-03T01:25:45.833Z,7.95
2023-02-03T01:26:45.902Z,7.95
2023-02-03T01:27:45.859Z,7.95
2023-02-03T01:28:45.846Z,7.95
2023-02-03T01:29:45.796Z,7.95
2023-02-03T01:30:46.005Z,7.95
2023-02-03T01:31:45.994Z,7.94
2023-02-03T01:32:45.790Z,7.94
2023-02-03T01:33:45.797Z,7.94
2023-02-03T01:34:45.763Z,7.94
2023-02-03T01:35:45.748Z,7.95
2023-02-03T01:36:45.749Z,7.95
2023-02-03T01:37:45.738Z,7.95
2023-02-03T01:38:45.728Z,7.95
2023-02-03T01:39:45.720Z,7.95
2023-02-03T01:40:45.694Z,7.94
2023-02-03T01:41:45.673Z,7.95
2023-02-03T01:42:45.676Z,7.94
2023-02-03T01:43:45.673Z,7.95
2023-02-03T01:44:45.662Z,7.95
2023-02-03T01:45:45.687Z,7.95
2023-02-03T01:46:45.676Z,7.97
2023-02-03T01:47:45.631Z,7.95
2023-02-03T01:48:45.634Z,7.95
2023-02-03T01:49:45.590Z,7.97
2023-02-03T01:50:45.592Z,7.98
2023-02-03T01:51:45.617Z,7.98
2023-02-03T01:52:45.583Z,7.98
2023-02-03T01:53:45.602Z,8.00
2023-02-03T01:54:45.579Z,8.00
2023-02-03T01:55:45.547Z,8.00
2023-02-03T01:56:45.537Z,8.01
2023-02-03T01:57:45.520Z,8.01
2023-02-03T01:58:45.502Z,8.01
2023-02-03T01:59:45.485Z,8.03
2023-02-03T02:00:45.512Z,8.05
2023-02-03T02:01:45.484Z,8.03
2023-02-03T02:02:45.522Z,8.05
2023-02-03T02:03:45.444Z,8.05
2023-02-03T02:04:45.435Z,8.03
2023-02-03T02:05:45.438Z,8.05
2023-02-03T02:06:45.435Z,8.08
2023-02-03T02:07:45.400Z,8.03
2023-02-03T02:08:45.392Z,8.06
2023-02-03T02:09:45.440Z,8.06
2023-02-03T02:10:45.389Z,8.08
2023-02-03T02:11:45.354Z,8.06
2023-02-03T02:12:45.383Z,8.06
2023-02-03T02:13:45.341Z,8.06
2023-02-03T02:14:52.982Z,8.06
2023-02-03T02:15:45.353Z,8.06
2023-02-03T02:16:45.329Z,8.08
2023-02-03T02:17:45.318Z,8.05
2023-02-03T02:18:45.344Z,8.06
2023-02-03T02:19:45.294Z,8.05
2023-02-03T02:20:45.287Z,8.06
2023-02-03T02:21:45.250Z,8.08
2023-02-03T02:22:45.288Z,8.06
2023-02-03T02:23:45.283Z,8.06
2023-02-03T02:24:45.225Z,8.05
2023-02-03T02:25:45.226Z,8.06
2023-02-03T02:26:45.239Z,8.09
2023-02-03T02:27:45.221Z,8.08
2023-02-03T02:28:45.209Z,8.08
2023-02-03T02:29:45.162Z,8.09
2023-02-03T07:01:01.117Z,7.91
2023-02-03T07:02:01.957Z,7.91
2023-02-03T07:03:01.948Z,7.91
2023-02-03T07:04:01.917Z,7.93
2023-02-03T07:05:01.901Z,7.91
2023-02-03T07:06:01.936Z,7.91
2023-02-03T07:07:01.882Z,7.91
2023-02-03T07:08:01.876Z,7.91
2023-02-03T07:09:02.036Z,7.93
2023-02-03T07:10:01.852Z,7.93
2023-02-03T07:11:01.834Z,7.93
2023-02-03T07:12:01.878Z,7.94
2023-02-03T07:13:01.816Z,7.94
2023-02-03T07:14:01.801Z,7.94
2023-02-03T07:15:01.790Z,7.94
2023-02-03T07:16:01.852Z,7.94
2023-02-03T07:17:01.766Z,7.95
2023-02-03T07:18:01.783Z,7.95
2023-02-03T07:19:01.758Z,7.95
2023-02-03T07:20:01.757Z,7.97
2023-02-03T07:21:01.726Z,7.95
2023-02-03T07:22:01.734Z,7.95
2023-02-03T07:23:01.719Z,7.97
2023-02-03T07:24:01.702Z,7.97
2023-02-03T07:25:01.714Z,7.97
2023-02-03T07:26:01.687Z,7.97
2023-02-03T07:27:04.167Z,7.97
2023-02-03T07:28:01.734Z,7.97
2023-02-03T07:29:01.641Z,7.98
2023-02-03T07:30:01.642Z,8.00
2023-02-03T07:31:01.774Z,7.98
2023-02-03T07:32:01.811Z,8.00
2023-02-03T07:33:01.590Z,8.01
2023-02-03T07:34:01.624Z,8.01
2023-02-03T07:35:01.595Z,8.05
2023-02-03T07:36:01.576Z,8.06
2023-02-03T07:37:01.551Z,8.05
2023-02-03T07:38:01.559Z,8.05
2023-02-03T07:39:01.590Z,8.06
2023-02-03T07:40:01.559Z,8.06
2023-02-03T07:41:01.504Z,8.08
2023-02-03T07:42:01.533Z,8.08
2023-02-03T07:43:01.491Z,8.10
2023-02-03T07:44:01.483Z,8.09
2023-02-03T07:45:01.478Z,8.10
2023-02-03T07:46:01.524Z,8.10
2023-02-03T07:47:01.502Z,8.12
2023-02-03T07:48:01.444Z,8.15
2023-02-03T07:49:01.423Z,8.15
2023-02-03T07:50:01.439Z,8.15
2023-02-03T07:51:01.426Z,8.16
2023-02-03T07:52:01.411Z,8.18
2023-02-03T07:53:01.411Z,8.18
2023-02-03T07:54:01.387Z,8.20
2023-02-03T07:55:01.354Z,8.19
2023-02-03T07:56:01.363Z,8.20
2023-02-03T07:57:01.335Z,8.20
2023-02-03T07:58:03.292Z,8.20
2023-02-03T07:59:01.335Z,8.23
2023-02-03T08:00:01.341Z,8.24
2023-02-03T08:01:01.311Z,8.27
2023-02-03T08:02:01.355Z,8.27
2023-02-03T08:03:01.275Z,8.27
2023-02-03T08:04:01.295Z,8.27
2023-02-03T08:05:01.392Z,8.28
2023-02-03T08:06:01.263Z,8.28
2023-02-03T08:07:01.255Z,8.33
2023-02-03T08:08:01.247Z,8.33
2023-02-03T08:09:01.242Z,8.33
2023-02-03T08:10:01.214Z,8.33
2023-02-03T08:11:01.209Z,8.34
2023-02-03T08:12:01.225Z,8.34
2023-02-03T08:13:01.188Z,8.36
2023-02-03T08:14:01.222Z,8.36
2023-02-03T08:15:01.144Z,8.36
2023-02-03T08:16:01.233Z,8.38
2023-02-03T08:17:01.126Z,8.38
2023-02-03T08:18:01.300Z,8.41
2023-02-03T08:19:01.105Z,8.42
2023-02-03T08:20:01.158Z,8.42
2023-02-03T08:21:01.092Z,8.42
2023-02-03T08:22:01.118Z,8.44
2023-02-03T08:23:01.091Z,8.44
2023-02-03T08:24:01.080Z,8.44
2023-02-03T08:25:01.066Z,8.44
2023-02-03T08:26:01.070Z,8.45
2023-02-03T08:27:01.042Z,8.46
2023-02-03T08:28:01.083Z,8.46
2023-02-03T08:29:01.018Z,8.49
2023-02-03T08:30:01.003Z,8.49
2023-02-03T08:31:01.023Z,8.51
2023-02-03T08:32:01.020Z,8.51
2023-02-03T08:33:00.982Z,8.53
2023-02-03T08:34:00.974Z,8.53
2023-02-03T08:35:00.965Z,8.55
2023-02-03T08:36:00.923Z,8.53
2023-02-03T08:37:00.944Z,8.56
2023-02-03T08:38:00.924Z,8.58
2023-02-03T08:39:00.910Z,8.58
2023-02-03T08:40:00.970Z,8.60
2023-02-03T08:41:00.919Z,8.61
2023-02-03T08:42:00.901Z,8.63
2023-02-03T08:43:00.878Z,8.64
2023-02-03T08:44:00.845Z,8.63
2023-02-03T08:45:02.338Z,8.67
2023-02-03T08:46:00.876Z,8.67
2023-02-03T08:47:00.851Z,8.69
2023-02-03T08:48:00.795Z,8.70
2023-02-03T08:49:00.800Z,8.73
2023-02-03T08:50:00.792Z,8.73
2023-02-03T08:51:00.801Z,8.73
2023-02-03T08:52:00.767Z,8.76
2023-02-03T08:53:00.793Z,8.78
2023-02-03T08:54:00.748Z,8.78
2023-02-03T08:55:00.749Z,8.78
2023-02-03T08:56:00.716Z,8.82
2023-02-03T08:57:00.721Z,8.82
2023-02-03T08:58:00.712Z,8.85
2023-02-03T08:59:00.693Z,8.87
2023-02-03T09:00:00.699Z,8.85
2023-02-03T09:01:00.712Z,8.88
2023-02-03T09:02:00.654Z,8.88
2023-02-03T09:03:00.670Z,8.89
2023-02-03T09:04:00.646Z,8.94
2023-02-03T09:05:00.709Z,8.92
2023-02-03T09:06:00.629Z,8.97
2023-02-03T09:07:00.613Z,8.99
2023-02-03T09:08:00.595Z,8.99
2023-02-03T09:09:00.603Z,9.02
2023-02-03T09:10:00.569Z,9.03
2023-02-03T09:11:00.571Z,9.06
2023-02-03T09:12:00.564Z,9.08
2023-02-03T09:13:00.576Z,9.08
2023-02-03T09:14:00.532Z,9.08
2023-02-03T09:15:00.565Z,9.10
2023-02-03T09:16:00.501Z,9.11
2023-02-03T09:17:00.550Z,9.13
2023-02-03T09:18:00.497Z,9.13
2023-02-03T09:19:00.480Z,9.16
2023-02-03T09:20:00.544Z,9.16
2023-02-03T09:21:00.473Z,9.18
2023-02-03T09:22:00.461Z,9.19
2023-02-03T09:23:00.522Z,9.21
2023-02-03T09:24:00.412Z,9.21
2023-02-03T09:25:00.419Z,9.22
2023-02-03T09:26:00.426Z,9.22
2023-02-03T09:27:00.459Z,9.22
2023-02-03T09:28:00.436Z,9.23
2023-02-03T09:29:00.424Z,9.25
2023-02-03T09:30:00.365Z,9.26
2023-02-03T09:31:00.421Z,9.26
2023-02-03T09:32:00.446Z,9.28
2023-02-03T09:33:00.336Z,9.29
2023-02-03T09:34:00.331Z,9.29
2023-02-03T09:35:00.371Z,9.29
2023-02-03T09:36:00.323Z,9.32
2023-02-03T09:37:00.302Z,9.34
2023-02-03T09:38:00.280Z,9.36
2023-02-03T09:39:00.290Z,9.37
2023-02-03T09:40:00.258Z,9.39
2023-02-03T09:41:11.174Z,9.39
2023-02-03T09:42:01.345Z,9.40
2023-02-03T09:43:00.256Z,9.43
2023-02-03T09:44:00.205Z,9.44
2023-02-03T09:45:00.225Z,9.43
2023-02-03T09:46:00.256Z,9.46
2023-02-03T09:47:00.207Z,9.47
2023-02-03T09:48:00.179Z,9.48
2023-02-03T09:49:00.191Z,9.51
2023-02-03T09:50:00.245Z,9.54
2023-02-03T09:51:00.144Z,9.56
2023-02-03T09:52:00.148Z,9.58
2023-02-03T09:53:00.161Z,9.58
2023-02-03T09:54:00.123Z,9.61
2023-02-03T09:55:00.134Z,9.62
2023-02-03T09:56:00.157Z,9.64
2023-02-03T09:57:00.096Z,9.64
2023-02-03T09:58:00.062Z,9.65
2023-02-03T09:59:00.122Z,9.68
2023-02-03T10:00:00.044Z,9.69
2023-02-03T10:01:00.197Z,9.72
2023-02-03T10:02:00.012Z,9.72
2023-02-03T10:03:00.111Z,9.73
2023-02-03T10:03:59.995Z,9.73
2023-02-03T10:05:00.000Z,9.73
2023-02-03T10:05:59.997Z,9.74
2023-02-03T10:06:59.988Z,9.74
2023-02-03T10:07:59.966Z,9.74
2023-02-03T10:08:59.964Z,9.76
2023-02-03T10:09:59.940Z,9.77
2023-02-03T10:10:59.946Z,9.76
2023-02-03T10:11:59.925Z,9.77
2023-02-03T10:12:59.916Z,9.77
2023-02-03T10:13:59.887Z,9.79
2023-02-03T10:14:59.905Z,9.79
2023-02-03T10:15:59.872Z,9.79
2023-02-03T10:17:00.037Z,9.79
2023-02-03T10:17:59.862Z,9.79
2023-02-03T10:19:01.248Z,9.77
2023-02-03T10:19:59.872Z,9.79
2023-02-03T10:20:59.841Z,9.77
2023-02-03T10:21:59.813Z,9.80
2023-02-03T10:22:59.825Z,9.82
2023-02-03T10:23:59.789Z,9.83
2023-02-03T10:24:59.795Z,9.82
2023-02-03T10:25:59.783Z,9.83
2023-02-03T10:26:59.777Z,9.82
2023-02-03T10:27:59.868Z,9.84
2023-02-03T10:28:59.766Z,9.83
2023-02-03T10:29:59.724Z,9.82
2023-02-03T10:30:59.942Z,9.83
2023-02-03T10:31:59.820Z,9.83
2023-02-03T10:32:59.712Z,9.82
2023-02-03T10:33:59.680Z,9.80
2023-02-03T10:34:59.696Z,9.82
2023-02-03T10:35:59.706Z,9.82
2023-02-03T10:36:59.688Z,9.82
2023-02-03T10:37:59.644Z,9.82
2023-02-03T10:38:59.648Z,9.83
2023-02-03T10:39:59.624Z,9.82
2023-02-03T10:40:59.704Z,9.80
2023-02-03T10:41:59.594Z,9.79
2023-02-03T10:42:59.585Z,9.79
2023-02-03T10:43:59.607Z,9.82
2023-02-03T10:44:59.625Z,9.79
2023-02-03T10:45:59.596Z,9.79
2023-02-03T10:46:59.660Z,9.79
2023-02-03T10:47:59.526Z,9.80
2023-02-03T10:48:59.547Z,9.77
2023-02-03T10:49:59.528Z,9.79
2023-02-03T10:50:59.513Z,9.79
2023-02-03T10:51:59.510Z,9.79
2023-02-03T10:52:59.493Z,9.79
2023-02-03T10:53:59.461Z,9.77
2023-02-03T10:54:59.506Z,9.80
2023-02-03T10:55:59.469Z,9.79
2023-02-03T10:56:59.465Z,9.79
2023-02-03T10:57:59.468Z,9.79
2023-02-03T10:58:59.440Z,9.80
2023-02-03T10:59:59.408Z,9.80
2023-02-03T11:00:59.457Z,9.82
2023-02-03T11:01:59.456Z,9.82
2023-02-03T11:02:59.491Z,9.80
2023-02-03T11:03:59.367Z,9.82
2023-02-03T11:04:59.376Z,9.79
2023-02-03T11:05:59.339Z,9.80
2023-02-03T11:06:59.361Z,9.82
2023-02-03T11:07:59.322Z,9.82
2023-02-03T11:08:59.336Z,9.82
2023-02-03T11:09:59.356Z,9.83
2023-02-03T11:10:59.292Z,9.83
2023-02-03T11:11:59.271Z,9.83
2023-02-03T11:12:59.283Z,9.84
2023-02-03T11:13:59.257Z,9.86
2023-02-03T11:14:59.249Z,9.87
2023-02-03T11:15:59.259Z,9.91
2023-02-03T11:16:59.238Z,9.91
2023-02-03T11:17:59.233Z,9.92
2023-02-03T11:18:59.261Z,9.95
2023-02-03T11:19:59.196Z,9.94
2023-02-03T11:20:59.194Z,9.94
2023-02-03T11:21:59.170Z,9.95
2023-02-03T11:22:59.168Z,9.92
2023-02-03T11:23:59.167Z,9.94
2023-02-03T11:24:59.156Z,9.94
2023-02-03T11:25:59.119Z,9.95
2023-02-03T11:26:59.133Z,9.92
2023-02-03T11:27:59.157Z,9.94
2023-02-03T11:28:59.134Z,9.94
2023-02-03T11:29:59.099Z,9.92
2023-02-03T11:30:59.256Z,9.91
2023-02-03T11:31:59.184Z,9.91
2023-02-03T11:32:59.081Z,9.89
2023-02-03T11:33:59.055Z,9.89
2023-02-03T11:34:59.046Z,9.89
2023-02-03T11:35:59.020Z,9.87
2023-02-03T11:36:59.023Z,9.87
2023-02-03T11:37:59.051Z,9.84
2023-02-03T11:38:59.009Z,9.86
2023-02-03T11:39:58.967Z,9.86
2023-02-03T11:40:59.009Z,9.84
2023-02-03T11:41:58.973Z,9.84
2023-02-03T11:42:58.973Z,9.84
2023-02-03T11:43:58.956Z,9.83
2023-02-03T11:44:58.948Z,9.82
2023-02-03T11:45:58.909Z,9.82
2023-02-03T11:46:58.909Z,9.82
2023-02-03T11:47:58.893Z,9.80
2023-02-03T11:48:58.930Z,9.80
2023-02-03T11:49:58.868Z,9.82
2023-02-03T11:50:58.871Z,9.80
2023-02-03T11:51:58.844Z,9.80
2023-02-03T11:52:58.859Z,9.79
2023-02-03T11:53:58.834Z,9.80
2023-02-03T11:54:58.862Z,9.79
2023-02-03T11:55:58.831Z,9.80
2023-02-03T11:56:58.864Z,9.79
2023-02-03T11:57:58.791Z,9.80
2023-02-03T11:58:58.822Z,9.79
2023-02-03T11:59:58.880Z,9.82
2023-02-03T12:00:58.777Z,9.79
2023-02-03T12:01:58.752Z,9.79
2023-02-03T12:02:58.808Z,9.80
2023-02-03T12:03:58.723Z,9.79
2023-02-03T12:05:00.951Z,9.79
2023-02-03T12:05:58.703Z,9.77
2023-02-03T12:06:58.706Z,9.77
2023-02-03T12:07:58.679Z,9.77
2023-02-03T12:08:58.679Z,9.77
2023-02-03T12:09:58.660Z,9.79
2023-02-03T12:10:58.710Z,9.76
2023-02-03T12:11:58.642Z,9.76
2023-02-03T12:12:58.689Z,9.77
2023-02-03T12:13:58.654Z,9.77
2023-02-03T12:14:58.618Z,9.79
2023-02-03T12:15:58.611Z,9.77
2023-02-03T12:16:58.620Z,9.74
2023-02-03T12:17:58.595Z,9.76
2023-02-03T12:18:58.591Z,9.76
2023-02-03T12:19:58.555Z,9.77
2023-02-03T12:20:58.608Z,9.74
2023-02-03T12:21:58.525Z,9.73
2023-02-03T12:22:58.551Z,9.72
2023-02-03T12:23:58.524Z,9.72
2023-02-03T12:24:58.536Z,9.72
2023-02-03T12:25:58.532Z,9.69
2023-02-03T12:26:58.484Z,9.72
2023-02-03T12:27:58.487Z,9.69
2023-02-03T12:28:58.522Z,9.69
2023-02-03T12:29:58.470Z,9.69
2023-02-03T12:30:58.482Z,9.69
2023-02-03T12:31:58.474Z,9.68
2023-02-03T12:32:58.445Z,9.66
2023-02-03T12:33:58.405Z,9.65
2023-02-03T12:34:58.382Z,9.64
2023-02-03T12:35:58.417Z,9.64
2023-02-03T12:36:58.378Z,9.62
2023-02-03T12:37:58.392Z,9.61
2023-02-03T12:38:58.360Z,9.61
2023-02-03T12:39:58.359Z,9.61
2023-02-03T12:40:58.336Z,9.58
2023-02-03T12:41:58.369Z,9.58
2023-02-03T12:42:58.327Z,9.58
2023-02-03T12:43:58.345Z,9.58
2023-02-03T12:44:58.286Z,9.56
2023-02-03T12:45:58.377Z,9.56
2023-02-03T12:46:58.266Z,9.56
2023-02-03T12:47:58.308Z,9.55
2023-02-03T12:48:58.255Z,9.55
2023-02-03T12:49:58.261Z,9.55
2023-02-03T12:50:58.224Z,9.54
2023-02-03T12:51:58.220Z,9.51
2023-02-03T12:52:58.213Z,9.50
2023-02-03T12:53:58.222Z,9.48
2023-02-03T12:54:58.203Z,9.47
2023-02-03T12:55:58.216Z,9.46
2023-02-03T12:56:58.188Z,9.46
2023-02-03T12:57:58.817Z,9.44
2023-02-03T12:58:58.170Z,9.44
2023-02-03T12:59:58.142Z,9.44
2023-02-03T13:00:58.195Z,9.46
2023-02-03T13:01:58.138Z,9.44
2023-02-03T13:02:58.089Z,9.43
2023-02-03T13:03:58.136Z,9.44
2023-02-03T13:04:58.095Z,9.46
2023-02-03T13:05:58.085Z,9.44
2023-02-03T13:06:58.094Z,9.47
2023-02-03T13:07:58.090Z,9.46
2023-02-03T13:08:58.064Z,9.47
2023-02-03T13:09:58.057Z,9.44
2023-02-03T13:10:58.008Z,9.46
2023-02-03T13:11:58.038Z,9.46
2023-02-03T13:12:58.016Z,9.46
2023-02-03T13:13:58.000Z,9.44
2023-02-03T13:14:58.005Z,9.43
2023-02-03T13:15:57.983Z,9.43
2023-02-03T13:16:58.042Z,9.39
2023-02-03T13:17:57.982Z,9.37
2023-02-03T13:18:57.949Z,9.39
2023-02-03T13:19:57.954Z,9.37
2023-02-03T13:20:57.950Z,9.36
2023-02-03T13:21:57.942Z,9.32
2023-02-03T13:22:57.931Z,9.32
2023-02-03T13:23:57.895Z,9.31
2023-02-03T13:24:57.881Z,9.29
2023-02-03T13:25:57.891Z,9.29
2023-02-03T13:26:57.943Z,9.26
2023-02-03T13:27:57.946Z,9.26
2023-02-03T13:28:57.852Z,9.23
2023-02-03T13:29:57.827Z,9.25
2023-02-03T13:30:57.848Z,9.22
2023-02-03T13:31:57.845Z,9.21
2023-02-03T13:32:57.790Z,9.19
2023-02-03T13:33:57.816Z,9.18
2023-02-03T13:34:57.774Z,9.18
2023-02-03T13:35:57.766Z,9.16
2023-02-03T13:36:57.921Z,9.16
2023-02-03T13:37:57.744Z,9.16
2023-02-03T13:38:57.759Z,9.14
2023-02-03T13:39:57.739Z,9.14
2023-02-03T13:40:57.729Z,9.13
2023-02-03T13:41:57.752Z,9.14
2023-02-03T13:42:57.693Z,9.14
2023-02-03T13:43:57.687Z,9.13
2023-02-03T13:44:57.699Z,9.14
2023-02-03T13:45:57.705Z,9.13
2023-02-03T13:46:57.635Z,9.13
2023-02-03T13:47:57.680Z,9.13
2023-02-03T13:48:57.686Z,9.14
2023-02-03T13:49:57.630Z,9.13
2023-02-03T13:50:57.616Z,9.13
2023-02-03T13:51:57.613Z,9.10
2023-02-03T13:52:57.624Z,9.11
2023-02-03T13:53:57.597Z,9.13
2023-02-03T13:54:57.555Z,9.13
2023-02-03T13:55:57.577Z,9.13
2023-02-03T13:56:57.536Z,9.11
2023-02-03T13:57:57.550Z,9.13
2023-02-03T13:58:57.508Z,9.11
2023-02-03T13:59:57.557Z,9.10
2023-02-03T14:00:57.490Z,9.10
2023-02-03T14:01:57.499Z,9.10
2023-02-03T14:02:57.506Z,9.08
2023-02-03T14:03:57.587Z,9.06
2023-02-03T14:04:57.545Z,9.06
2023-02-03T14:05:57.471Z,9.06
2023-02-03T14:06:57.442Z,9.03
2023-02-03T14:07:57.452Z,9.04
2023-02-03T14:08:57.400Z,9.02
2023-02-03T14:09:57.417Z,9.02
2023-02-03T14:10:57.390Z,9.00
2023-02-03T14:11:57.392Z,9.00
2023-02-03T14:12:57.371Z,8.97
2023-02-03T14:13:57.376Z,8.99
2023-02-03T14:14:57.361Z,8.97
2023-02-03T14:15:57.372Z,8.97
2023-02-03T14:16:57.400Z,8.97
2023-02-03T14:17:57.316Z,8.95
2023-02-03T14:18:57.330Z,8.95
2023-02-03T14:19:57.297Z,8.95
2023-02-03T14:20:57.290Z,8.94
2023-02-03T14:21:57.422Z,8.92
2023-02-03T14:22:57.251Z,8.92
2023-02-03T14:23:57.259Z,8.91
2023-02-03T14:24:57.251Z,8.89
2023-02-03T14:25:57.235Z,8.89
2023-02-03T14:26:57.205Z,8.89
2023-02-03T14:27:57.267Z,8.89
2023-02-03T14:28:57.200Z,8.89
2023-02-03T14:29:57.197Z,8.88
2023-02-03T14:30:57.288Z,8.88
2023-02-03T14:31:57.237Z,8.85
2023-02-03T14:32:57.171Z,8.88
2023-02-03T14:33:57.161Z,8.84
2023-02-03T14:34:57.115Z,8.87
2023-02-03T14:35:57.164Z,8.85
2023-02-03T14:36:57.188Z,8.85
2023-02-03T14:37:57.123Z,8.84
2023-02-03T14:38:57.103Z,8.84
2023-02-03T14:39:57.116Z,8.82
2023-02-03T14:40:57.070Z,8.82
2023-02-03T14:41:57.096Z,8.84
2023-02-03T14:43:09.477Z,8.84
2023-02-03T14:43:57.107Z,8.82
2023-02-03T14:44:57.057Z,8.82
2023-02-03T14:45:57.092Z,8.81
2023-02-03T14:46:56.996Z,8.81
2023-02-03T14:47:57.055Z,8.82
2023-02-03T14:48:56.972Z,8.82
2023-02-03T14:49:56.978Z,8.81
2023-02-03T14:50:56.987Z,8.81
2023-02-03T14:51:56.976Z,8.81
2023-02-03T14:52:56.939Z,8.82
2023-02-03T14:53:56.957Z,8.82
2023-02-03T14:54:56.932Z,8.81
2023-02-03T14:55:56.930Z,8.82
2023-02-03T14:56:56.924Z,8.82
2023-02-03T14:57:56.921Z,8.81
2023-02-03T14:58:56.866Z,8.81
2023-02-03T14:59:56.870Z,8.81
2023-02-03T15:00:56.843Z,8.79
2023-02-03T15:01:56.926Z,8.81
2023-02-03T15:02:56.838Z,8.79
2023-02-03T15:03:58.781Z,8.79
2023-02-03T15:04:56.850Z,8.79
2023-02-03T15:05:56.825Z,8.81
2023-02-03T15:06:56.812Z,8.81
2023-02-03T15:07:56.810Z,8.79
2023-02-03T15:08:56.762Z,8.78
2023-02-03T15:09:56.786Z,8.81
2023-02-03T15:10:56.735Z,8.79
2023-02-03T15:11:56.795Z,8.79
2023-02-03T15:12:56.740Z,8.81
2023-02-03T15:13:56.751Z,8.79
2023-02-03T15:14:56.699Z,8.81
2023-02-03T15:15:56.798Z,8.82
2023-02-03T15:16:56.729Z,8.81
2023-02-03T15:17:56.698Z,8.81
2023-02-03T15:18:56.666Z,8.81
2023-02-03T15:19:56.658Z,8.82
2023-02-03T15:20:56.625Z,8.81
2023-02-03T15:21:56.652Z,8.82
2023-02-03T15:22:56.627Z,8.84
2023-02-03T15:23:56.625Z,8.82
2023-02-03T15:24:56.590Z,8.82
2023-02-03T15:25:56.609Z,8.84
2023-02-03T15:26:56.575Z,8.82
2023-02-03T15:27:56.692Z,8.84
2023-02-03T15:28:56.657Z,8.84
2023-02-03T15:29:56.555Z,8.84
2023-02-03T15:30:56.638Z,8.85
2023-02-03T15:31:56.610Z,8.87
2023-02-03T15:32:56.508Z,8.85
2023-02-03T15:33:56.524Z,8.85
2023-02-03T15:34:56.488Z,8.87
2023-02-03T15:35:56.505Z,8.84
2023-02-03T15:36:56.509Z,8.85
2023-02-03T15:37:56.481Z,8.88
2023-02-03T15:38:56.461Z,8.88
2023-02-03T15:39:56.451Z,8.89
2023-02-03T15:40:56.417Z,8.89
2023-02-03T15:41:56.465Z,8.88
2023-02-03T15:42:56.446Z,8.88
2023-02-03T15:43:56.421Z,8.88
2023-02-03T15:44:56.389Z,8.89
2023-02-03T15:45:56.392Z,8.89
2023-02-03T15:46:56.526Z,8.91
2023-02-03T15:47:56.360Z,8.91
2023-02-03T15:48:56.359Z,8.91
2023-02-03T15:49:56.334Z,8.89
2023-02-03T15:50:56.342Z,8.89
2023-02-03T15:51:56.324Z,8.89
2023-02-03T15:52:56.321Z,8.91
2023-02-03T15:53:56.325Z,8.89
2023-02-03T15:54:56.286Z,8.91
2023-02-03T15:55:56.278Z,8.89
2023-02-03T15:56:56.258Z,8.91
2023-02-03T15:57:56.275Z,8.88
2023-02-03T15:58:56.284Z,8.89
2023-02-03T15:59:56.244Z,8.89
2023-02-03T16:00:56.209Z,8.88
2023-02-03T16:01:56.267Z,8.88
2023-02-03T16:02:56.266Z,8.89
2023-02-03T16:03:56.252Z,8.88
2023-02-03T16:04:56.167Z,8.89
2023-02-03T16:05:56.179Z,8.88
2023-02-03T16:06:56.160Z,8.89
2023-02-03T16:07:56.159Z,8.91
2023-02-03T16:08:56.174Z,8.91
2023-02-03T16:09:56.153Z,8.91
2023-02-03T16:10:56.119Z,8.89
2023-02-03T16:11:56.121Z,8.89
2023-02-03T16:12:56.122Z,8.91
2023-02-03T16:13:56.107Z,8.91
2023-02-03T16:14:56.079Z,8.89
2023-02-03T16:15:56.089Z,8.89
2023-02-03T16:17:04.964Z,8.91
2023-02-03T16:17:56.055Z,8.92
2023-02-03T16:18:56.038Z,8.91
2023-02-03T16:19:56.023Z,8.92
2023-02-03T16:20:56.006Z,8.89
2023-02-03T16:21:56.016Z,8.91
2023-02-03T16:22:56.005Z,8.91
2023-02-03T16:23:55.994Z,8.92
2023-02-03T16:24:55.953Z,8.92
2023-02-03T16:25:55.981Z,8.91
2023-02-03T16:26:55.955Z,8.91
2023-02-03T16:27:55.989Z,8.91
2023-02-03T16:28:55.934Z,8.89
2023-02-03T16:29:55.932Z,8.91
2023-02-03T16:30:55.938Z,8.91
2023-02-03T16:31:55.942Z,8.89
2023-02-03T16:32:55.877Z,8.89
2023-02-03T16:33:55.921Z,8.88
2023-02-03T16:34:55.896Z,8.89
2023-02-03T16:35:55.918Z,8.92
2023-02-03T16:36:55.905Z,8.89
2023-02-03T16:37:55.845Z,8.88
2023-02-03T16:38:55.807Z,8.89
2023-02-03T16:39:55.848Z,8.91
2023-02-03T16:40:55.789Z,8.89
2023-02-03T16:41:55.798Z,8.87
2023-02-03T16:42:55.839Z,8.89
2023-02-03T16:43:55.836Z,8.89
2023-02-03T16:44:55.749Z,8.88
2023-02-03T16:45:55.842Z,8.89
2023-02-03T16:46:55.820Z,8.89
2023-02-03T16:47:55.805Z,8.89
2023-02-03T16:48:55.771Z,8.88
2023-02-03T16:49:55.784Z,8.89
2023-02-03T16:50:58.216Z,8.89
2023-02-03T16:51:55.754Z,8.89
2023-02-03T16:52:55.758Z,8.91
2023-02-03T16:53:55.701Z,8.91
2023-02-03T16:54:55.713Z,8.92
2023-02-03T16:55:55.687Z,8.92
2023-02-03T16:56:57.771Z,8.94
2023-02-03T16:57:55.701Z,8.94
2023-02-03T16:58:55.669Z,8.92
2023-02-03T16:59:55.646Z,8.94
2023-02-03T17:00:55.665Z,8.95
2023-02-03T17:01:55.683Z,8.97
2023-02-03T17:02:58.331Z,8.95
2023-02-03T17:03:55.606Z,8.94
2023-02-03T17:04:55.610Z,8.95
2023-02-03T17:05:55.631Z,8.95
2023-02-03T17:06:55.593Z,8.95
2023-02-03T17:07:55.555Z,8.95
2023-02-03T17:08:57.813Z,8.95
2023-02-03T17:09:55.549Z,8.95
2023-02-03T17:10:55.570Z,8.95
2023-02-03T17:11:55.522Z,8.95
2023-02-03T17:12:55.532Z,8.95
2023-02-03T17:13:55.491Z,8.95
2023-02-03T17:14:57.209Z,8.95
2023-02-03T17:15:55.470Z,8.97
2023-02-03T17:16:55.479Z,8.95
2023-02-03T17:17:55.454Z,8.95
2023-02-03T17:18:55.481Z,8.95
2023-02-03T17:19:55.429Z,8.95
2023-02-03T17:20:57.508Z,8.95
2023-02-03T17:21:55.436Z,8.97
2023-02-03T17:22:55.414Z,8.97
2023-02-03T17:23:55.403Z,8.99
2023-02-03T17:24:55.406Z,8.97
2023-02-03T17:25:55.384Z,8.99
2023-02-03T17:26:57.367Z,9.02
2023-02-03T17:27:55.482Z,8.99
2023-02-03T17:28:55.357Z,8.99
2023-02-03T17:29:55.326Z,9.00
2023-02-03T17:30:55.403Z,9.03
2023-02-03T17:31:55.341Z,9.00
2023-02-03T17:32:57.576Z,9.02
2023-02-03T17:33:55.276Z,9.02
2023-02-03T17:34:55.289Z,9.02
2023-02-03T17:35:55.267Z,9.02
2023-02-03T17:36:55.286Z,9.02
2023-02-03T17:37:55.243Z,9.00
2023-02-03T17:53:41.356Z,8.95
2023-02-03T17:54:42.340Z,8.94
2023-02-03T17:55:42.320Z,8.94
2023-02-03T17:56:42.305Z,8.94
2023-02-03T17:57:42.392Z,8.94
2023-02-03T17:58:42.281Z,8.94
2023-02-03T17:59:42.283Z,8.92
2023-02-03T18:00:42.277Z,8.92
2023-02-03T18:01:42.251Z,8.92
2023-02-03T18:02:42.328Z,8.94
2023-02-03T18:03:42.231Z,8.91